Map

Track Data

SID SEASON NUMBER BASIN SUBBASIN NAME ISO_TIME NATURE LAT LON WMO_WIND WMO_PRES WMO_AGENCY TRACK_TYPE DIST2LAND LANDFALL IFLAG USA_AGENCY USA_ATCF_ID USA_LAT USA_LON USA_RECORD USA_STATUS USA_WIND USA_PRES USA_SSHS USA_R34_NE USA_R34_SE USA_R34_SW USA_R34_NW USA_R50_NE USA_R50_SE USA_R50_SW USA_R50_NW USA_R64_NE USA_R64_SE USA_R64_SW USA_R64_NW USA_POCI USA_ROCI USA_RMW USA_EYE TOKYO_LAT TOKYO_LON TOKYO_GRADE TOKYO_WIND TOKYO_PRES TOKYO_R50_DIR TOKYO_R50_LONG TOKYO_R50_SHORT TOKYO_R30_DIR TOKYO_R30_LONG TOKYO_R30_SHORT TOKYO_LAND CMA_LAT CMA_LON CMA_CAT CMA_WIND CMA_PRES HKO_LAT HKO_LON HKO_CAT HKO_WIND HKO_PRES NEWDELHI_LAT NEWDELHI_LON NEWDELHI_GRADE NEWDELHI_WIND NEWDELHI_PRES NEWDELHI_CI NEWDELHI_DP NEWDELHI_POCI REUNION_LAT REUNION_LON REUNION_TYPE REUNION_WIND REUNION_PRES REUNION_TNUM REUNION_CI REUNION_RMW REUNION_R34_NE REUNION_R34_SE REUNION_R34_SW REUNION_R34_NW REUNION_R50_NE REUNION_R50_SE REUNION_R50_SW REUNION_R50_NW REUNION_R64_NE REUNION_R64_SE REUNION_R64_SW REUNION_R64_NW BOM_LAT BOM_LON BOM_TYPE BOM_WIND BOM_PRES BOM_TNUM BOM_CI BOM_RMW BOM_R34_NE BOM_R34_SE BOM_R34_SW BOM_R34_NW BOM_R50_NE BOM_R50_SE BOM_R50_SW BOM_R50_NW BOM_R64_NE BOM_R64_SE BOM_R64_SW BOM_R64_NW BOM_ROCI BOM_POCI BOM_EYE BOM_POS_METHOD BOM_PRES_METHOD NADI_LAT NADI_LON NADI_CAT NADI_WIND NADI_PRES WELLINGTON_LAT WELLINGTON_LON WELLINGTON_WIND WELLINGTON_PRES DS824_LAT DS824_LON DS824_STAGE DS824_WIND DS824_PRES TD9636_LAT TD9636_LON TD9636_STAGE TD9636_WIND TD9636_PRES TD9635_LAT TD9635_LON TD9635_WIND TD9635_PRES TD9635_ROCI NEUMANN_LAT NEUMANN_LON NEUMANN_CLASS NEUMANN_WIND NEUMANN_PRES MLC_LAT MLC_LON MLC_CLASS MLC_WIND MLC_PRES USA_GUST BOM_GUST BOM_GUST_PER REUNION_GUST REUNION_GUST_PER USA_SEAHGT USA_SEARAD_NE USA_SEARAD_SE USA_SEARAD_SW USA_SEARAD_NW STORM_SPEED STORM_DIR
1934269N10143 1934 58 WP MM NOT_NAMED 1934-09-25 21:00:00 NR 9.70000 142.700 main 1360 1352 __________O___ -1 9.70000 142.700 7 5 287
1934269N10143 1934 58 WP MM NOT_NAMED 1934-09-26 00:00:00 NR 9.77622 142.442 main 1359 1352 __________P___ -1 9.77622 142.442 7 6 287
1934269N10143 1934 58 WP MM NOT_NAMED 1934-09-26 03:00:00 NR 9.88204 142.107 main 1359 1352 __________P___ -1 9.88204 142.107 7 9 288
1934269N10143 1934 58 WP MM NOT_NAMED 1934-09-26 06:00:00 NR 10.0470 141.619 main 1353 1353 __________P___ -1 10.0470 141.619 7 13 289
1934269N10143 1934 58 WP MM NOT_NAMED 1934-09-26 09:00:00 NR 10.3000 140.900 main 1361 1352 __________O___ -1 10.3000 140.900 7 18 290
1934269N10143 1934 58 WP MM NOT_NAMED 1934-09-26 12:00:00 NR 10.6574 139.911 main 1362 1355 __________P___ -1 10.6574 139.911 7 22 291
1934269N10143 1934 58 WP MM NOT_NAMED 1934-09-26 15:00:00 NR 11.0875 138.773 main 1368 1284 __________P___ -1 11.0875 138.773 7 24 292
1934269N10143 1934 58 WP MM NOT_NAMED 1934-09-26 18:00:00 NR 11.5483 137.648 main 1274 1190 __________P___ -1 11.5483 137.648 7 22 294
1934269N10143 1934 58 WP MM NOT_NAMED 1934-09-26 21:00:00 NR 12.0000 136.700 main 1190 1142 __________O___ -1 12.0000 136.700 7 17 301
1934269N10143 1934 58 WP MM NOT_NAMED 1934-09-27 00:00:00 NR 12.4028 136.176 main 1143 1116 __________P___ -1 12.4028 136.176 7 12 313
1934269N10143 1934 58 WP MM NOT_NAMED 1934-09-27 03:00:00 NR 12.7915 135.840 main 1107 1091 __________P___ -1 12.7915 135.840 7 10 323
1934269N10143 1934 58 WP MM NOT_NAMED 1934-09-27 06:00:00 NR 13.1596 135.585 main 1094 1070 __________P___ -1 13.1596 135.585 7 9 323
1934269N10143 1934 58 WP MM NOT_NAMED 1934-09-27 09:00:00 NR 13.5000 135.300 main 1070 1032 __________O___ -1 13.5000 135.300 7 10 310
1934269N10143 1934 58 WP MM NOT_NAMED 1934-09-27 12:00:00 NR 13.7794 134.833 main 1023 974 __________P___ -1 13.7794 134.833 7 11 299
1934269N10143 1934 58 WP MM NOT_NAMED 1934-09-27 15:00:00 NR 14.0350 134.316 main 974 929 __________P___ -1 14.0350 134.316 7 12 297
1934269N10143 1934 58 WP MM NOT_NAMED 1934-09-27 18:00:00 NR 14.2980 133.767 main 929 875 __________P___ -1 14.2980 133.767 7 12 298
1934269N10143 1934 58 WP MM NOT_NAMED 1934-09-27 21:00:00 NR 14.6000 133.200 main 875 839 __________O___ -1 14.6000 133.200 7 13 305
1934269N10143 1934 58 WP MM NOT_NAMED 1934-09-28 00:00:00 NR 15.0247 132.712 main 839 812 __________P___ -1 15.0247 132.712 7 13 312
1934269N10143 1934 58 WP MM NOT_NAMED 1934-09-28 03:00:00 NR 15.4845 132.200 main 812 777 __________P___ -1 15.4845 132.200 7 14 310
1934269N10143 1934 58 WP MM NOT_NAMED 1934-09-28 06:00:00 NR 15.9271 131.613 main 777 741 __________P___ -1 15.9271 131.613 7 15 303
1934269N10143 1934 58 WP MM NOT_NAMED 1934-09-28 09:00:00 NR 16.3000 130.900 main 741 677 __________O___ -1 16.3000 130.900 7 16 292
1934269N10143 1934 58 WP MM NOT_NAMED 1934-09-28 12:00:00 NR 16.5455 130.028 main 667 593 __________P___ -1 16.5455 130.028 7 18 283
1934269N10143 1934 58 WP MM NOT_NAMED 1934-09-28 15:00:00 NR 16.7124 129.028 main 584 504 __________P___ -1 16.7124 129.028 7 20 278
1934269N10143 1934 58 WP MM NOT_NAMED 1934-09-28 18:00:00 NR 16.8229 127.940 main 496 427 __________P___ -1 16.8229 127.940 7 21 275
1934269N10143 1934 58 WP MM NOT_NAMED 1934-09-28 21:00:00 NR 16.9000 126.800 main 420 340 __________O___ -1 16.9000 126.800 7 22 273
1934269N10143 1934 58 WP MM NOT_NAMED 1934-09-29 00:00:00 NR 16.9516 125.610 main 329 212 __________P___ -1 16.9516 125.610 7 23 272
1934269N10143 1934 58 WP MM NOT_NAMED 1934-09-29 03:00:00 NR 16.9795 124.388 main 202 85 __________P___ -1 16.9795 124.388 7 23 272
1934269N10143 1934 58 WP MM NOT_NAMED 1934-09-29 06:00:00 NR 17.0174 123.197 main 74 0 __________P___ -1 17.0174 123.197 7 22 273
1934269N10143 1934 58 WP MM NOT_NAMED 1934-09-29 09:00:00 NR 17.1000 122.100 main 0 0 __________O___ -1 17.1000 122.100 7 20 278
1934269N10143 1934 58 WP MM NOT_NAMED 1934-09-29 12:00:00 NR 17.3090 121.128 main 0 0 __________P___ -1 17.3090 121.128 7 18 285
1934269N10143 1934 58 WP MM NOT_NAMED 1934-09-29 15:00:00 NR 17.5625 120.258 main 0 0 __________P___ -1 17.5625 120.258 7 16 288
1934269N10143 1934 58 WP MM NOT_NAMED 1934-09-29 18:00:00 NR 17.8098 119.484 main 87 87 __________P___ -1 17.8098 119.484 7 15 287
1934269N10143 1934 58 WP MM NOT_NAMED 1934-09-29 21:00:00 NR 18.0000 118.800 main 165 165 __________O___ -1 18.0000 118.800 7 13 280
1934269N10143 1934 58 WP MM NOT_NAMED 1934-09-30 00:00:00 NR 18.0270 118.134 main 237 237 __________P___ -1 18.0270 118.134 7 12 270
1934269N10143 1934 58 WP MM NOT_NAMED 1934-09-30 03:00:00 NR 17.9988 117.560 main 289 289 __________P___ -1 17.9988 117.560 7 10 267
1934269N10143 1934 58 WP MM NOT_NAMED 1934-09-30 06:00:00 NR 17.9713 117.082 main 341 341 __________P___ -1 17.9713 117.082 7 8 270
1934269N10143 1934 58 WP MM NOT_NAMED 1934-09-30 09:00:00 NR 18.0000 116.700 main 380 380 __________O___ -1 18.0000 116.700 7 6 290
1934269N10143 1934 58 WP MM NOT_NAMED 1934-09-30 12:00:00 NR 18.1786 116.496 main 407 407 __________P___ -1 18.1786 116.496 7 5 323
1934269N10143 1934 58 WP MM NOT_NAMED 1934-09-30 15:00:00 NR 18.4170 116.367 main 422 422 __________P___ -1 18.4170 116.367 7 6 331
1934269N10143 1934 58 WP MM NOT_NAMED 1934-09-30 18:00:00 NR 18.6720 116.205 main 445 415 __________P___ -1 18.6720 116.205 7 7 318
1934269N10143 1934 58 WP MM NOT_NAMED 1934-09-30 21:00:00 NR 18.9000 115.900 main 415 375 __________O___ -1 18.9000 115.900 7 9 297
1934269N10143 1934 58 WP MM NOT_NAMED 1934-10-01 00:00:00 NR 19.0669 115.371 main 375 349 __________P___ -1 19.0669 115.371 7 12 283
1934269N10143 1934 58 WP MM NOT_NAMED 1934-10-01 03:00:00 NR 19.1783 114.653 main 349 307 __________P___ -1 19.1783 114.653 7 15 277
1934269N10143 1934 58 WP MM NOT_NAMED 1934-10-01 06:00:00 NR 19.2504 113.808 main 295 212 __________P___ -1 19.2504 113.808 7 17 274
1934269N10143 1934 58 WP MM NOT_NAMED 1934-10-01 09:00:00 NR 19.3000 112.900 main 202 __________O___ -1 19.3000 112.900 7 17 273

Digital Typhoon Data and Search

About IBTrACS Database

This database is a web-friendly format of International Best Track Archive for Climate Stewardship (IBTrACS), a global best track data archive curated by NOAA dating back to 1842.

Updated: 2021-11-26